Terminal Aerodrome Forecast
Issued by NWS Blacksburg, VA

Current Version | Previous Version | Text Only | Print | Product List | Glossary Off
Versions: 1 2 3 4 5 6 7 8 9 10 11 12 13 14 15 16 17 18 19 20 21 22 23 24 25 26 27 28 29 30 31 32 33 34 35 36 37

000
FTUS41 KRNK 211416 AAC
TAFBLF
TAF AMD
KBLF 211416Z 2114/2212 VRB04KT 2SM BR VCSH OVC004
      TEMPO 2118/2122 4SM BR SCT005 OVC012
     FM220000 30008KT P6SM -SHRA OVC007=

USA.gov is the U.S. government's official web portal to all federal, state and local government web resources and services.